Time;durP1;ratioP1;P1;durP2;ratioP2;P2;SDS_P1;SDS_P2;PMS_P1;PMS_P2;Temp;Humidity;BMP_temperature;BMP_pressure;BME280_temperature;BME280_humidity;BME280_pressure;Samples;Min_cycle;Max_cycle;Signal;HPM_P1;HPM_P2
2021/06/28 00:01:10;;;;;;;7.47;6.80;;;17.10;99.90;;;;;;5052568;28;20501;-85
2021/06/28 00:03:38;;;;;;;7.03;6.53;;;17.10;99.90;;;;;;5034759;28;20080;-84
2021/06/28 00:06:06;;;;;;;7.30;6.60;;;17.00;99.90;;;;;;5035356;28;20055;-83
2021/06/28 00:08:33;;;;;;;7.55;6.82;;;17.10;99.90;;;;;;5052464;28;20445;-84
2021/06/28 00:11:01;;;;;;;7.38;6.88;;;17.10;99.90;;;;;;5035122;28;20053;-84
2021/06/28 00:13:28;;;;;;;7.55;6.80;;;17.10;99.90;;;;;;5052599;28;20066;-84
2021/06/28 00:15:56;;;;;;;7.90;7.10;;;17.00;99.90;;;;;;5035234;28;20053;-84
2021/06/28 00:18:22;;;;;;;7.45;6.95;;;17.00;99.90;;;;;;5038965;28;20143;-84
2021/06/28 00:20:50;;;;;;;10.60;7.15;;;17.10;99.90;;;;;;5056740;28;20048;-83
2021/06/28 00:23:18;;;;;;;7.75;6.80;;;17.00;99.90;;;;;;5056837;28;20057;-84
2021/06/28 00:25:45;;;;;;;7.63;6.93;;;17.00;99.90;;;;;;5056155;28;20055;-83
2021/06/28 00:28:11;;;;;;;7.60;6.90;;;17.10;99.90;;;;;;5039183;28;20143;-84
2021/06/28 00:30:41;;;;;;;7.65;6.90;;;17.10;99.90;;;;;;5056553;28;20147;-84
2021/06/28 00:33:14;;;;;;;8.48;6.90;;;17.00;99.90;;;;;;5039060;28;20049;-83
2021/06/28 00:35:42;;;;;;;7.77;6.63;;;17.10;99.90;;;;;;5052323;28;20056;-84
2021/06/28 00:38:10;;;;;;;7.90;7.07;;;17.10;99.90;;;;;;5059009;28;20056;-83
2021/06/28 00:40:39;;;;;;;7.60;6.90;;;17.20;99.90;;;;;;5039319;28;20065;-83
2021/06/28 00:43:07;;;;;;;6.85;6.35;;;17.10;99.90;;;;;;5039211;28;20041;-85
2021/06/28 00:45:36;;;;;;;7.82;6.85;;;17.10;99.90;;;;;;5056181;28;20057;-84
2021/06/28 00:48:07;;;;;;;9.73;7.97;;;17.10;99.90;;;;;;5039194;28;20055;-84
2021/06/28 00:50:37;;;;;;;7.35;6.75;;;17.20;99.90;;;;;;5056107;28;20048;-85
2021/06/28 00:53:07;;;;;;;8.85;6.93;;;17.10;99.90;;;;;;5038698;28;20057;-84
2021/06/28 00:55:35;;;;;;;7.55;6.82;;;17.10;99.90;;;;;;5038696;28;20059;-84
2021/06/28 00:58:03;;;;;;;12.38;7.30;;;17.10;99.90;;;;;;5056165;28;20048;-84
2021/06/28 01:00:30;;;;;;;8.77;7.82;;;17.20;99.90;;;;;;5038539;28;20095;-84
2021/06/28 01:02:58;;;;;;;8.38;6.82;;;17.10;99.90;;;;;;5038109;28;20166;-84
2021/06/28 01:05:30;;;;;;;8.77;7.30;;;17.10;99.90;;;;;;5037684;28;20489;-83
2021/06/28 01:07:58;;;;;;;7.88;7.05;;;17.20;99.90;;;;;;5038456;28;20052;-84
2021/06/28 01:10:25;;;;;;;8.10;6.93;;;17.10;99.90;;;;;;5038676;28;20076;-85
2021/06/28 01:12:52;;;;;;;8.07;7.22;;;17.10;99.90;;;;;;5038059;28;20055;-84
2021/06/28 01:15:20;;;;;;;8.73;7.93;;;17.10;99.90;;;;;;5038074;28;20049;-85
2021/06/28 01:17:48;;;;;;;7.93;7.28;;;17.10;99.90;;;;;;5038052;28;20053;-84
2021/06/28 01:20:24;;;;;;;9.15;8.25;;;17.10;99.90;;;;;;5038443;28;20055;-84
2021/06/28 01:22:54;;;;;;;7.90;7.32;;;17.00;99.90;;;;;;5056160;28;20052;-85
2021/06/28 01:25:24;;;;;;;9.27;8.35;;;16.90;99.90;;;;;;5055216;28;20049;-84
2021/06/28 01:27:51;;;;;;;8.52;7.82;;;17.00;99.90;;;;;;5037982;28;20052;-85
2021/06/28 01:30:21;;;;;;;8.52;7.70;;;17.00;99.90;;;;;;5038095;28;20053;-85
2021/06/28 01:32:49;;;;;;;8.52;7.65;;;16.90;99.90;;;;;;5055783;28;20053;-84
2021/06/28 01:35:17;;;;;;;8.18;7.38;;;16.90;99.90;;;;;;5055424;28;20515;-85
2021/06/28 01:37:48;;;;;;;11.30;8.10;;;16.90;99.90;;;;;;5037817;28;20053;-84
2021/06/28 01:40:17;;;;;;;10.30;7.90;;;16.90;99.90;;;;;;5055291;28;20045;-83
2021/06/28 01:42:44;;;;;;;8.23;7.47;;;16.90;99.90;;;;;;5037570;28;20417;-84
2021/06/28 01:45:15;;;;;;;7.88;7.28;;;17.00;99.90;;;;;;5055199;28;20049;-84
2021/06/28 01:47:43;;;;;;;8.73;8.00;;;17.00;99.90;;;;;;5037910;28;20051;-84
2021/06/28 01:50:12;;;;;;;8.35;7.65;;;16.90;99.90;;;;;;5054115;28;20053;-85
2021/06/28 01:52:39;;;;;;;7.93;7.28;;;16.90;99.90;;;;;;5055040;28;20044;-84
2021/06/28 01:55:09;;;;;;;9.05;8.15;;;16.90;99.90;;;;;;5039587;28;20061;-85
2021/06/28 01:57:41;;;;;;;8.30;7.50;;;16.90;99.90;;;;;;5042460;28;20124;-85
2021/06/28 02:00:09;;;;;;;8.75;8.00;;;16.90;99.90;;;;;;5055539;28;20051;-84
2021/06/28 02:02:35;;;;;;;9.98;8.40;;;17.00;99.90;;;;;;5036972;28;20049;-85
2021/06/28 02:05:04;;;;;;;9.10;8.35;;;16.90;99.90;;;;;;5037507;28;20055;-85
2021/06/28 02:07:31;;;;;;;8.90;8.02;;;16.80;99.90;;;;;;5037427;28;20103;-85
2021/06/28 02:09:58;;;;;;;9.38;8.45;;;16.80;99.90;;;;;;5037662;28;20053;-85
2021/06/28 02:12:27;;;;;;;8.98;8.23;;;16.80;99.90;;;;;;5037494;28;20136;-85
2021/06/28 02:14:53;;;;;;;9.00;8.18;;;16.60;99.90;;;;;;5036118;28;20091;-85
2021/06/28 02:17:20;;;;;;;9.60;8.63;;;16.60;99.90;;;;;;5054844;28;20056;-84
2021/06/28 02:19:47;;;;;;;8.88;8.07;;;16.60;99.90;;;;;;5037242;28;20108;-85
2021/06/28 02:22:14;;;;;;;9.57;8.68;;;16.50;99.90;;;;;;5054830;28;20057;-85
2021/06/28 02:24:41;;;;;;;9.60;8.70;;;16.40;99.90;;;;;;5037046;28;20419;-85
2021/06/28 02:27:09;;;;;;;10.15;9.15;;;16.30;99.90;;;;;;5054583;28;20049;-83
2021/06/28 02:29:35;;;;;;;9.38;8.57;;;16.20;99.90;;;;;;5054282;28;20053;-84
2021/06/28 02:32:03;;;;;;;8.75;7.95;;;16.20;99.90;;;;;;5054689;28;20048;-84
2021/06/28 02:34:29;;;;;;;9.60;8.65;;;16.20;99.90;;;;;;5036645;28;20139;-84
2021/06/28 02:36:56;;;;;;;11.40;9.05;;;16.30;99.90;;;;;;5036915;28;20055;-84
2021/06/28 02:39:23;;;;;;;10.75;9.70;;;16.20;99.90;;;;;;5035916;28;20056;-84
2021/06/28 02:41:50;;;;;;;12.75;9.40;;;16.20;99.90;;;;;;5054103;28;20059;-84
2021/06/28 02:44:17;;;;;;;10.07;9.15;;;16.00;99.90;;;;;;5036713;28;20051;-83
2021/06/28 02:46:43;;;;;;;9.85;8.95;;;16.10;99.90;;;;;;5036090;28;20049;-84
2021/06/28 02:49:10;;;;;;;10.68;9.77;;;16.20;99.90;;;;;;5036620;28;20045;-85
2021/06/28 02:51:37;;;;;;;9.70;8.75;;;16.10;99.90;;;;;;5036532;28;20059;-85
2021/06/28 02:54:04;;;;;;;11.00;9.90;;;16.10;99.90;;;;;;5036797;28;20040;-85
2021/06/28 02:56:31;;;;;;;10.15;9.35;;;16.10;99.90;;;;;;5036283;28;20059;-84
2021/06/28 02:58:58;;;;;;;10.07;9.18;;;16.00;99.90;;;;;;5036554;28;20448;-85
2021/06/28 03:01:27;;;;;;;10.15;9.18;;;16.00;99.90;;;;;;5036134;28;20133;-84
2021/06/28 03:03:54;;;;;;;11.00;9.40;;;16.10;99.90;;;;;;5053769;28;20048;-85
2021/06/28 03:06:21;;;;;;;11.18;9.57;;;16.10;99.90;;;;;;5036217;28;20064;-84
2021/06/28 03:08:48;;;;;;;10.25;9.35;;;16.10;99.90;;;;;;5036161;28;20140;-84
2021/06/28 03:11:18;;;;;;;10.30;9.30;;;16.20;99.90;;;;;;5035842;28;20056;-83
2021/06/28 03:13:45;;;;;;;10.77;9.30;;;16.20;99.90;;;;;;5036497;28;20053;-84
2021/06/28 03:16:12;;;;;;;13.43;9.25;;;16.30;99.90;;;;;;5038461;28;20055;-85
2021/06/28 03:18:40;;;;;;;12.15;9.55;;;16.20;99.90;;;;;;5036614;28;20064;-85
2021/06/28 03:21:07;;;;;;;16.73;10.60;;;16.20;99.90;;;;;;5036209;28;20059;-84
2021/06/28 03:23:35;;;;;;;14.05;9.63;;;16.10;99.90;;;;;;5035746;28;20053;-84
2021/06/28 03:26:03;;;;;;;13.90;9.65;;;16.10;99.90;;;;;;5035625;28;20102;-84
2021/06/28 03:28:30;;;;;;;13.73;9.00;;;16.10;99.90;;;;;;5035767;28;20060;-84
2021/06/28 03:30:57;;;;;;;15.52;10.40;;;16.20;99.90;;;;;;5035785;28;20057;-85
2021/06/28 03:33:24;;;;;;;12.20;9.75;;;16.20;99.90;;;;;;5035820;28;20045;-85
2021/06/28 03:35:51;;;;;;;12.20;9.68;;;16.10;99.90;;;;;;5035735;28;20123;-85
2021/06/28 03:38:18;;;;;;;9.98;9.13;;;16.10;99.90;;;;;;5035705;28;20427;-85
2021/06/28 03:40:46;;;;;;;10.77;9.77;;;16.10;99.90;;;;;;5053301;28;20045;-84
2021/06/28 03:43:13;;;;;;;10.95;9.95;;;16.10;99.90;;;;;;5035634;28;20049;-85
2021/06/28 03:45:40;;;;;;;10.38;9.35;;;16.10;99.90;;;;;;5053237;28;20053;-85
2021/06/28 03:48:10;;;;;;;9.75;8.95;;;16.10;99.90;;;;;;5053344;28;20406;-85
2021/06/28 03:50:37;;;;;;;11.43;10.30;;;16.10;99.90;;;;;;5035212;28;20049;-85
2021/06/28 03:53:04;;;;;;;11.10;10.00;;;16.00;99.90;;;;;;5035248;28;20105;-85
2021/06/28 03:55:31;;;;;;;10.77;9.98;;;16.00;99.90;;;;;;5052839;28;20417;-85
2021/06/28 03:57:59;;;;;;;10.23;9.38;;;16.00;99.90;;;;;;5035818;28;20052;-84
2021/06/28 04:00:28;;;;;;;13.05;10.93;;;16.00;99.90;;;;;;5035778;28;20494;-85
2021/06/28 04:02:56;;;;;;;12.55;11.45;;;16.10;99.90;;;;;;5035398;28;20172;-84
2021/06/28 04:05:24;;;;;;;12.27;11.07;;;16.10;99.90;;;;;;5035228;28;20433;-84
2021/06/28 04:07:52;;;;;;;10.75;9.43;;;16.10;99.90;;;;;;5035200;28;20412;-84
2021/06/28 04:10:21;;;;;;;14.90;9.48;;;16.20;99.90;;;;;;5052635;28;20051;-84
2021/06/28 04:12:49;;;;;;;10.50;9.40;;;16.20;99.90;;;;;;5035077;28;20132;-84
2021/06/28 04:15:17;;;;;;;13.25;9.90;;;16.20;99.90;;;;;;5034891;28;20566;-84
2021/06/28 04:17:50;;;;;;;10.80;9.68;;;16.30;99.90;;;;;;5034740;28;20045;-84
2021/06/28 04:20:20;;;;;;;10.10;9.10;;;16.30;99.90;;;;;;5032604;28;20049;-84
2021/06/28 04:22:48;;;;;;;10.43;9.25;;;16.30;99.90;;;;;;5031875;28;20046;-85
2021/06/28 04:25:18;;;;;;;10.75;9.75;;;16.30;99.90;;;;;;5032700;28;20607;-84
2021/06/28 04:27:46;;;;;;;10.05;9.23;;;16.40;99.90;;;;;;5032273;28;20079;-85
2021/06/28 04:30:17;;;;;;;10.85;9.85;;;16.30;99.90;;;;;;5032280;28;20433;-86
2021/06/28 04:32:44;;;;;;;11.73;9.43;;;16.30;99.90;;;;;;5033638;28;20136;-86
2021/06/28 04:35:14;;;;;;;9.88;8.90;;;16.30;99.90;;;;;;5036339;28;20448;-85
2021/06/28 04:37:41;;;;;;;11.00;9.90;;;16.30;99.90;;;;;;5032662;28;20129;-85
2021/06/28 04:40:11;;;;;;;10.52;9.52;;;16.40;99.90;;;;;;5031950;28;20053;-85
2021/06/28 04:42:37;;;;;;;10.80;9.82;;;16.50;99.90;;;;;;5032613;28;20533;-86
2021/06/28 04:45:06;;;;;;;10.82;9.80;;;16.60;99.90;;;;;;5031662;28;20409;-85
2021/06/28 04:47:32;;;;;;;10.50;9.20;;;16.70;99.90;;;;;;5032459;28;20145;-85
2021/06/28 04:50:02;;;;;;;10.90;9.93;;;16.80;99.90;;;;;;5031705;28;20045;-85
2021/06/28 04:52:31;;;;;;;14.30;9.35;;;17.00;99.90;;;;;;5031850;28;20049;-86
2021/06/28 04:54:58;;;;;;;10.55;8.55;;;17.20;99.90;;;;;;5031361;28;20050;-85
2021/06/28 04:57:25;;;;;;;9.48;8.57;;;17.70;99.90;;;;;;5032306;28;20045;-85
2021/06/28 04:59:52;;;;;;;9.80;8.30;;;18.30;99.90;;;;;;5031407;28;20060;-85
2021/06/28 05:02:22;;;;;;;9.15;8.30;;;18.40;99.90;;;;;;5031520;28;20042;-85
2021/06/28 05:04:49;;;;;;;12.95;7.28;;;18.60;99.90;;;;;;5034759;28;20061;-86
2021/06/28 05:07:16;;;;;;;11.10;7.55;;;18.60;99.90;;;;;;5036576;28;20052;-85
2021/06/28 05:09:44;;;;;;;10.90;8.25;;;18.60;99.90;;;;;;5035725;28;20056;-85
2021/06/28 05:12:13;;;;;;;13.20;7.82;;;18.60;99.90;;;;;;5034884;28;20067;-85
2021/06/28 05:14:39;;;;;;;10.10;8.18;;;18.80;99.90;;;;;;5031251;28;20046;-85
2021/06/28 05:17:07;;;;;;;8.25;7.18;;;19.20;99.90;;;;;;5028535;28;20060;-85
2021/06/28 05:19:35;;;;;;;10.68;8.07;;;19.60;99.90;;;;;;5033863;28;20140;-85
2021/06/28 05:22:02;;;;;;;7.53;6.93;;;20.20;99.90;;;;;;5034255;28;20053;-85
2021/06/28 05:24:30;;;;;;;7.60;6.90;;;20.60;99.90;;;;;;5035163;28;20055;-85
2021/06/28 05:26:57;;;;;;;9.23;7.40;;;20.80;99.90;;;;;;5034237;28;20053;-85
2021/06/28 05:29:24;;;;;;;7.95;7.22;;;21.10;99.90;;;;;;5033931;28;20045;-84
2021/06/28 05:31:51;;;;;;;6.63;6.13;;;21.40;99.90;;;;;;5033801;28;20069;-85
2021/06/28 05:34:18;;;;;;;6.25;5.75;;;22.60;99.90;;;;;;5035052;28;20060;-85
2021/06/28 05:36:45;;;;;;;8.35;6.45;;;24.30;99.90;;;;;;5033334;28;20502;-84
2021/06/28 05:39:12;;;;;;;17.73;6.80;;;25.60;99.90;;;;;;5024282;28;20054;-83
2021/06/28 05:41:38;;;;;;;14.05;6.82;;;26.80;99.90;;;;;;5022179;28;20490;-83
2021/06/28 05:44:05;;;;;;;12.93;7.25;;;27.00;99.90;;;;;;5024776;28;20048;-84
2021/06/28 05:46:32;;;;;;;18.15;8.23;;;27.10;99.90;;;;;;5017037;28;20054;-84
2021/06/28 05:48:59;;;;;;;15.85;7.32;;;26.90;99.90;;;;;;5015210;28;20471;-85
2021/06/28 05:51:26;;;;;;;15.32;7.25;;;27.30;99.90;;;;;;5014225;28;20054;-85
2021/06/28 05:53:53;;;;;;;15.90;7.72;;;26.70;99.90;;;;;;5018242;28;20050;-84
2021/06/28 05:56:19;;;;;;;18.65;7.55;;;27.10;99.90;;;;;;5014096;28;20410;-84
2021/06/28 05:58:46;;;;;;;17.23;8.25;;;28.30;99.90;;;;;;5013047;28;20056;-84
2021/06/28 06:01:15;;;;;;;16.30;8.27;;;29.40;99.90;;;;;;5014255;28;20049;-85
2021/06/28 06:03:42;;;;;;;22.23;9.65;;;29.90;98.40;;;;;;5013470;28;20516;-84
2021/06/28 06:06:09;;;;;;;32.45;11.13;;;30.00;96.90;;;;;;5013405;28;20050;-84
2021/06/28 06:08:36;;;;;;;25.13;11.02;;;30.40;95.00;;;;;;5013550;28;20129;-84
2021/06/28 06:11:03;;;;;;;25.08;10.07;;;30.70;93.20;;;;;;5013003;28;20137;-84
2021/06/28 06:13:30;;;;;;;17.63;8.30;;;30.30;92.80;;;;;;5013040;28;20052;-85
2021/06/28 06:15:59;;;;;;;16.25;8.45;;;29.70;92.70;;;;;;5012533;28;20054;-85
2021/06/28 06:18:26;;;;;;;16.27;8.55;;;29.00;94.20;;;;;;5012872;28;20069;-85
2021/06/28 06:20:53;;;;;;;17.90;8.27;;;28.80;94.70;;;;;;5014850;28;20072;-84
2021/06/28 06:23:20;;;;;;;27.48;9.60;;;28.60;95.40;;;;;;5014501;28;20129;-83
2021/06/28 06:25:47;;;;;;;16.05;8.23;;;28.60;95.80;;;;;;5013489;28;20041;-86
2021/06/28 06:28:14;;;;;;;16.00;8.43;;;27.90;95.80;;;;;;5014182;28;20060;-84
2021/06/28 06:30:42;;;;;;;9.80;6.40;;;27.60;98.10;;;;;;5014871;28;20046;-85
2021/06/28 06:33:10;;;;;;;15.85;7.60;;;27.80;97.00;;;;;;5012979;28;20086;-85
2021/06/28 06:35:37;;;;;;;15.75;7.07;;;27.90;98.00;;;;;;5014199;28;20406;-84
2021/06/28 06:38:05;;;;;;;15.43;7.55;;;29.50;95.70;;;;;;5011424;28;20130;-83
2021/06/28 06:40:32;;;;;;;19.45;7.35;;;30.10;94.50;;;;;;5012526;28;20564;-84
2021/06/28 06:43:00;;;;;;;11.02;6.60;;;31.10;92.10;;;;;;5014585;28;20049;-84
2021/06/28 06:45:27;;;;;;;13.50;6.85;;;32.50;88.30;;;;;;5013146;28;20100;-84
2021/06/28 06:47:54;;;;;;;16.25;6.25;;;33.80;80.70;;;;;;5012610;28;20430;-84
2021/06/28 06:50:25;;;;;;;14.18;6.22;;;35.40;71.90;;;;;;5013307;28;20046;-85
2021/06/28 06:52:52;;;;;;;10.73;5.60;;;35.70;70.00;;;;;;5013258;28;20510;-82
2021/06/28 06:55:21;;;;;;;10.70;5.40;;;36.00;65.20;;;;;;5014609;28;20046;-84
2021/06/28 06:57:48;;;;;;;10.35;5.88;;;36.20;64.00;;;;;;5013696;28;20052;-84
2021/06/28 07:00:17;;;;;;;12.20;5.82;;;35.80;64.30;;;;;;5014150;28;20054;-85
2021/06/28 07:02:44;;;;;;;27.92;8.07;;;35.10;65.00;;;;;;5013711;28;20048;-85
2021/06/28 07:05:14;;;;;;;39.35;10.20;;;33.90;66.40;;;;;;5013328;28;20056;-84
2021/06/28 07:07:42;;;;;;;30.95;8.82;;;33.10;67.90;;;;;;5014696;28;20045;-85
2021/06/28 07:10:10;;;;;;;25.83;7.63;;;32.70;69.60;;;;;;5013938;28;20046;-85
2021/06/28 07:12:38;;;;;;;14.35;6.68;;;32.50;70.70;;;;;;5019074;28;20083;-86
2021/06/28 07:15:06;;;;;;;17.98;6.60;;;32.00;74.10;;;;;;5017016;28;20453;-85
2021/06/28 07:17:33;;;;;;;11.50;6.43;;;31.90;74.80;;;;;;5013261;28;20411;-85
2021/06/28 07:20:00;;;;;;;14.55;6.38;;;31.80;76.00;;;;;;5012688;28;20054;-85
2021/06/28 07:22:26;;;;;;;14.93;6.18;;;31.60;76.20;;;;;;5014308;28;20120;-85
2021/06/28 07:24:53;;;;;;;7.35;5.38;;;30.60;79.10;;;;;;5013981;28;20045;-85
2021/06/28 07:27:20;;;;;;;10.85;6.07;;;30.50;81.70;;;;;;5013775;28;20178;-86
2021/06/28 07:29:47;;;;;;;13.65;6.05;;;30.70;85.30;;;;;;5012669;28;20045;-87
2021/06/28 07:32:15;;;;;;;13.40;5.63;;;30.10;81.60;;;;;;5013219;28;20147;-84
2021/06/28 07:34:42;;;;;;;6.05;4.63;;;31.10;82.10;;;;;;5012375;28;20066;-84
2021/06/28 07:37:09;;;;;;;3.42;3.00;;;33.30;77.90;;;;;;5013014;28;20052;-85
2021/06/28 07:39:36;;;;;;;5.32;3.38;;;36.10;69.70;;;;;;5013859;28;20406;-85
2021/06/28 07:42:03;;;;;;;5.57;3.08;;;37.70;60.00;;;;;;5013716;28;20425;-84
2021/06/28 07:44:29;;;;;;;2.83;2.58;;;38.70;57.40;;;;;;5013682;28;20103;-85
2021/06/28 07:46:56;;;;;;;2.40;2.30;;;38.80;56.50;;;;;;5013461;28;20050;-84
2021/06/28 07:49:23;;;;;;;2.40;2.30;;;38.40;54.10;;;;;;5012457;28;20141;-84
2021/06/28 07:51:50;;;;;;;2.05;1.88;;;38.10;53.70;;;;;;5012908;28;20491;-86
2021/06/28 07:54:18;;;;;;;2.47;2.10;;;38.70;52.70;;;;;;5012941;28;20056;-86
2021/06/28 07:56:45;;;;;;;2.38;2.10;;;38.70;51.90;;;;;;5012783;28;20172;-84
2021/06/28 07:59:12;;;;;;;2.30;2.08;;;38.60;51.00;;;;;;5013653;28;20081;-83
2021/06/28 08:01:39;;;;;;;5.57;2.40;;;40.10;50.70;;;;;;5012594;28;20054;-84
2021/06/28 08:04:05;;;;;;;3.80;2.30;;;41.20;48.00;;;;;;5013370;28;20483;-82
2021/06/28 08:06:32;;;;;;;2.85;2.10;;;41.70;47.40;;;;;;5011805;28;20477;-81
2021/06/28 08:09:00;;;;;;;3.22;2.05;;;42.40;46.10;;;;;;5012701;28;20137;-83
2021/06/28 08:11:26;;;;;;;1.92;1.83;;;42.50;45.50;;;;;;5012592;28;20052;-85
2021/06/28 08:13:54;;;;;;;1.73;1.73;;;43.20;43.60;;;;;;5012580;28;20050;-82
2021/06/28 08:16:22;;;;;;;3.33;1.88;;;43.00;44.10;;;;;;5012631;28;20526;-84
2021/06/28 08:18:52;;;;;;;1.60;1.60;;;44.20;42.60;;;;;;5012380;28;20137;-85
2021/06/28 08:21:34;;;;;;;2.45;2.25;;;43.30;41.40;;;;;;5012745;28;20061;-83
2021/06/28 08:24:02;;;;;;;1.90;1.80;;;41.10;41.20;;;;;;5012660;28;20046;-85
2021/06/28 08:26:28;;;;;;;1.90;1.63;;;39.60;43.30;;;;;;5012150;28;20050;-83
2021/06/28 08:28:56;;;;;;;2.30;2.10;;;39.00;44.80;;;;;;5013358;28;20057;-84
2021/06/28 08:31:23;;;;;;;2.10;1.90;;;38.00;46.10;;;;;;5015660;28;20081;-82
2021/06/28 08:34:09;;;;;;;2.22;1.98;;;37.30;47.20;;;;;;5020541;28;20068;-83
2021/06/28 08:36:36;;;;;;;2.05;1.83;;;37.00;47.90;;;;;;5013091;28;20100;-81
2021/06/28 08:39:04;;;;;;;2.22;2.00;;;36.30;48.60;;;;;;5016003;28;20156;-81
2021/06/28 08:41:32;;;;;;;6.95;4.07;;;35.70;49.50;;;;;;5016031;28;20483;-83
2021/06/28 08:43:59;;;;;;;4.78;2.38;;;37.40;49.70;;;;;;5016861;28;20053;-84
2021/06/28 08:46:26;;;;;;;6.85;1.98;;;39.90;46.10;;;;;;5016090;28;20045;-81
2021/06/28 08:48:54;;;;;;;6.93;2.90;;;40.30;44.40;;;;;;5017191;28;20462;-82
2021/06/28 08:51:21;;;;;;;1.95;1.77;;;40.50;44.40;;;;;;5016667;28;20482;-83
2021/06/28 08:54:05;;;;;;;2.13;1.90;;;42.20;43.20;;;;;;5017593;28;20137;-83
2021/06/28 08:56:33;;;;;;;2.00;1.90;;;42.80;41.70;;;;;;5016245;28;20050;-83
2021/06/28 08:59:01;;;;;;;3.97;1.80;;;43.50;42.70;;;;;;5016943;28;20133;-83
2021/06/28 09:01:30;;;;;;;11.52;2.28;;;44.60;41.10;;;;;;5015319;28;20050;-82
2021/06/28 09:03:57;;;;;;;6.18;2.00;;;45.10;40.60;;;;;;5016619;28;20048;-83
2021/06/28 09:06:27;;;;;;;4.20;1.75;;;44.90;40.00;;;;;;5016729;28;20057;-84
2021/06/28 09:08:55;;;;;;;12.48;1.98;;;44.90;39.60;;;;;;5015659;28;20054;-82
2021/06/28 09:11:22;;;;;;;4.40;1.70;;;44.60;39.90;;;;;;5015228;28;20491;-84
2021/06/28 09:13:50;;;;;;;1.67;1.50;;;45.30;39.40;;;;;;5015951;28;20050;-85
2021/06/28 09:16:21;;;;;;;1.63;1.63;;;44.70;39.20;;;;;;5016675;28;20049;-83
2021/06/28 09:19:06;;;;;;;1.45;1.45;;;43.50;38.20;;;;;;5015192;28;20410;-85
2021/06/28 09:21:51;;;;;;;1.70;1.60;;;43.40;39.00;;;;;;5015400;28;20050;-82
2021/06/28 09:24:30;;;;;;;1.63;1.50;;;42.60;39.50;;;;;;5015984;28;20487;-85
2021/06/28 09:27:18;;;;;;;1.90;1.80;;;43.20;39.30;;;;;;5015243;28;20088;-83
2021/06/28 09:29:54;;;;;;;3.40;1.60;;;42.60;39.70;;;;;;5015357;28;20609;-83
2021/06/28 09:32:22;;;;;;;1.50;1.50;;;41.90;39.40;;;;;;5016088;28;20510;-82
2021/06/28 09:34:53;;;;;;;1.60;1.60;;;42.00;40.40;;;;;;5016112;28;20054;-83
2021/06/28 09:37:26;;;;;;;3.85;1.90;;;41.40;40.60;;;;;;5013838;28;20441;-83
2021/06/28 09:39:54;;;;;;;;;;;42.80;40.40;;;;;;5016323;28;20421;-83
2021/06/28 09:42:24;;;;;;;1.60;1.50;;;41.60;40.30;;;;;;5014665;28;19921;-84
2021/06/28 09:45:03;;;;;;;1.35;1.25;;;41.50;39.50;;;;;;5014291;28;20530;-84
2021/06/28 09:47:33;;;;;;;2.13;1.92;;;40.30;40.20;;;;;;5013943;28;20081;-83
2021/06/28 09:50:13;;;;;;;2.17;1.88;;;39.20;42.40;;;;;;5015788;28;20512;-86
2021/06/28 09:52:44;;;;;;;1.88;1.77;;;37.70;44.00;;;;;;5021689;28;20054;-85
2021/06/28 09:55:20;;;;;;;3.28;2.10;;;36.50;45.90;;;;;;5021087;28;20144;-84
2021/06/28 09:58:13;;;;;;;2.45;2.10;;;35.40;48.10;;;;;;5013768;28;20565;-84
2021/06/28 10:00:40;;;;;;;2.13;2.00;;;34.60;50.20;;;;;;5013904;28;20093;-84
2021/06/28 10:03:33;;;;;;;1.98;1.98;;;35.70;49.20;;;;;;5011730;28;20050;-84
2021/06/28 10:06:09;;;;;;;7.15;2.60;;;35.70;52.10;;;;;;5013371;28;20077;-84
2021/06/28 10:08:38;;;;;;;3.17;2.03;;;35.10;49.10;;;;;;5013711;28;20077;-86
2021/06/28 10:11:25;;;;;;;4.20;2.00;;;36.80;48.10;;;;;;5014040;28;20049;-86
2021/06/28 10:14:05;;;;;;;2.13;1.95;;;37.30;46.10;;;;;;5015088;28;20049;-84
2021/06/28 10:16:38;;;;;;;1.90;1.80;;;37.90;46.70;;;;;;5024471;28;20050;-83
2021/06/28 10:19:10;;;;;;;2.35;2.25;;;39.00;45.10;;;;;;5033104;28;20060;-84
2021/06/28 10:21:37;;;;;;;2.20;2.10;;;37.80;45.10;;;;;;5025388;28;20418;-85
2021/06/28 10:24:06;;;;;;;2.00;1.90;;;36.50;46.40;;;;;;5031394;28;20064;-84
2021/06/28 10:26:33;;;;;;;1.85;1.80;;;35.40;48.10;;;;;;5033159;28;20502;-85
2021/06/28 10:29:00;;;;;;;2.08;1.92;;;36.60;46.70;;;;;;5033578;28;20049;-83
2021/06/28 10:31:27;;;;;;;1.90;1.80;;;38.20;46.70;;;;;;5032427;28;20057;-85
2021/06/28 10:33:57;;;;;;;7.32;2.17;;;41.00;43.50;;;;;;5032631;28;20103;-83
2021/06/28 10:36:33;;;;;;;2.78;1.80;;;43.50;42.00;;;;;;5032890;28;20089;-83
2021/06/28 10:38:59;;;;;;;1.75;1.73;;;42.20;41.10;;;;;;5033176;28;20060;-85
2021/06/28 10:41:37;;;;;;;2.30;1.92;;;42.70;38.60;;;;;;5032693;28;20130;-84
2021/06/28 10:44:10;;;;;;;9.10;2.10;;;43.30;39.70;;;;;;5032828;28;20240;-84
2021/06/28 10:46:39;;;;;;;1.77;1.67;;;44.40;38.80;;;;;;5032294;28;20045;-83
2021/06/28 10:49:06;;;;;;;2.17;1.98;;;44.10;37.80;;;;;;5033946;28;20489;-88
2021/06/28 10:51:59;;;;;;;1.63;1.58;;;45.50;36.60;;;;;;5034022;28;20446;-84
2021/06/28 10:54:34;;;;;;;2.43;1.60;;;43.00;36.30;;;;;;5031356;28;20041;-84
2021/06/28 10:57:02;;;;;;;1.75;1.65;;;40.70;39.30;;;;;;5033629;28;20079;-83
2021/06/28 10:59:44;;;;;;;1.25;1.25;;;41.60;39.00;;;;;;5032321;28;20061;-82
2021/06/28 11:02:12;;;;;;;9.85;3.70;;;43.20;39.00;;;;;;5032084;28;20083;-84
2021/06/28 11:04:41;;;;;;;1.42;1.42;;;43.00;37.60;;;;;;5032557;28;20045;-87
2021/06/28 11:07:13;;;;;;;1.35;1.30;;;42.20;38.00;;;;;;5032193;28;20128;-84
2021/06/28 11:09:46;;;;;;;1.30;1.30;;;42.60;37.20;;;;;;5032246;28;20060;-84
2021/06/28 11:12:24;;;;;;;3.40;1.77;;;44.40;37.00;;;;;;5033600;28;20184;-83
2021/06/28 11:14:59;;;;;;;11.07;2.13;;;44.60;37.00;;;;;;5038489;28;20053;-82
2021/06/28 11:17:51;;;;;;;1.77;1.70;;;42.90;38.00;;;;;;5032314;28;20059;-89
2021/06/28 11:20:21;;;;;;;1.42;1.42;;;40.90;39.30;;;;;;5032581;28;20053;-83
2021/06/28 11:22:50;;;;;;;2.15;2.05;;;38.50;41.40;;;;;;5032035;28;20053;-84
2021/06/28 11:25:23;;;;;;;1.95;1.85;;;37.00;43.60;;;;;;5032256;28;20410;-83
2021/06/28 11:27:56;;;;;;;2.92;1.92;;;36.00;45.90;;;;;;5031778;28;20052;-82
2021/06/28 11:30:25;;;;;;;2.13;2.03;;;36.50;45.40;;;;;;5033022;28;20050;-83
2021/06/28 11:33:06;;;;;;;3.33;1.90;;;36.20;46.10;;;;;;5032350;28;20059;-85
2021/06/28 11:35:50;;;;;;;1.85;1.75;;;35.30;45.10;;;;;;5032952;28;20129;-83
2021/06/28 11:38:24;;;;;;;1.85;1.75;;;34.80;47.30;;;;;;5033005;28;20511;-84
2021/06/28 11:40:54;;;;;;;1.80;1.80;;;34.20;48.30;;;;;;5031866;28;20602;-84
2021/06/28 11:43:38;;;;;;;1.85;1.75;;;33.90;48.20;;;;;;5031511;28;20046;-84
2021/06/28 11:46:16;;;;;;;1.83;1.73;;;34.00;48.00;;;;;;5032284;28;20053;-85
2021/06/28 11:48:50;;;;;;;1.55;1.55;;;33.90;47.10;;;;;;5031891;28;20164;-85
2021/06/28 11:51:18;;;;;;;1.80;1.80;;;33.70;48.30;;;;;;5032974;28;20045;-83
2021/06/28 11:53:50;;;;;;;2.20;2.10;;;33.80;48.50;;;;;;5032934;28;20057;-84
2021/06/28 11:56:26;;;;;;;9.30;3.13;;;33.70;48.60;;;;;;5030218;28;20045;-83
2021/06/28 11:58:55;;;;;;;4.35;2.08;;;33.40;49.20;;;;;;5031332;28;20402;-84
2021/06/28 12:01:24;;;;;;;5.82;2.58;;;33.40;49.50;;;;;;5030431;28;20735;-84
2021/06/28 12:03:51;;;;;;;15.02;3.33;;;33.40;50.30;;;;;;5031871;28;20053;-85
2021/06/28 12:06:18;;;;;;;9.82;2.97;;;33.40;50.30;;;;;;5030715;28;20045;-82
2021/06/28 12:08:45;;;;;;;73.35;8.38;;;33.10;49.90;;;;;;5030841;28;20526;-83
2021/06/28 12:11:13;;;;;;;2.58;1.85;;;33.40;51.70;;;;;;5031900;28;20433;-83
2021/06/28 12:13:43;;;;;;;2.67;2.30;;;33.40;49.30;;;;;;5033942;28;20421;-83
2021/06/28 12:16:17;;;;;;;2.05;1.95;;;33.90;49.60;;;;;;5035198;28;20052;-87
2021/06/28 12:18:45;;;;;;;1.73;1.63;;;34.10;49.10;;;;;;5035610;28;20085;-84
2021/06/28 12:21:12;;;;;;;2.22;2.03;;;34.10;48.50;;;;;;5035680;28;20136;-86
2021/06/28 12:23:38;;;;;;;2.20;1.90;;;34.20;49.20;;;;;;5035312;28;20080;-83
2021/06/28 12:26:13;;;;;;;1.60;1.58;;;34.60;49.20;;;;;;5035351;28;20076;-83
2021/06/28 12:28:40;;;;;;;2.00;1.85;;;34.80;49.30;;;;;;5035602;28;20089;-85
2021/06/28 12:31:16;;;;;;;3.05;2.08;;;34.90;48.60;;;;;;5035702;28;20053;-84
2021/06/28 12:33:44;;;;;;;8.40;2.30;;;34.90;48.70;;;;;;5040473;28;20486;-83
2021/06/28 12:36:19;;;;;;;2.03;1.92;;;34.90;48.70;;;;;;5040290;28;20046;-83
2021/06/28 12:38:45;;;;;;;1.80;1.70;;;35.00;48.10;;;;;;5016132;28;20408;-83
2021/06/28 12:41:12;;;;;;;2.03;1.92;;;35.30;48.70;;;;;;5018462;28;20129;-83
2021/06/28 12:43:40;;;;;;;2.08;1.83;;;35.30;48.40;;;;;;5020439;28;20092;-86
2021/06/28 12:46:07;;;;;;;2.17;2.05;;;34.90;47.80;;;;;;5025333;28;20096;-83
2021/06/28 12:48:34;;;;;;;2.38;2.00;;;35.00;48.50;;;;;;5014965;28;20054;-85
2021/06/28 12:51:04;;;;;;;4.05;1.80;;;34.90;48.20;;;;;;5023139;28;20045;-84
2021/06/28 12:53:33;;;;;;;9.00;2.50;;;34.70;49.40;;;;;;5035052;28;20561;-84